createdAt,value
2019-05-18T00:00:38.537Z,8.50
2019-05-18T00:03:05.152Z,8.60
2019-05-18T00:05:31.668Z,8.90
2019-05-18T00:07:58.129Z,8.60
2019-05-18T00:10:24.527Z,9.30
2019-05-18T00:12:51.060Z,8.60
2019-05-18T00:15:17.656Z,8.60
2019-05-18T00:17:44.056Z,8.60
2019-05-18T00:20:10.747Z,8.50
2019-05-18T00:22:37.440Z,8.50
2019-05-18T00:25:05.230Z,8.50
2019-05-18T00:27:31.643Z,8.40
2019-05-18T00:29:58.236Z,8.30
2019-05-18T00:32:24.653Z,8.30
2019-05-18T00:34:51.068Z,9.10
2019-05-18T00:37:17.565Z,8.30
2019-05-18T00:39:44.018Z,8.20
2019-05-18T00:42:10.413Z,8.20
2019-05-18T00:44:36.793Z,8.20
2019-05-18T00:47:03.191Z,8.20
2019-05-18T00:49:30.869Z,8.20
2019-05-18T00:51:57.241Z,8.20
2019-05-18T00:54:23.706Z,8.20
2019-05-18T00:56:50.201Z,8.20
2019-05-18T00:59:16.740Z,8.20
2019-05-18T01:01:43.333Z,8.10
2019-05-18T01:04:09.748Z,8.10
2019-05-18T01:06:36.136Z,8.10
2019-05-18T01:09:05.065Z,8.10
2019-05-18T01:11:31.453Z,8.00
2019-05-18T01:13:58.138Z,7.90
2019-05-18T01:16:24.538Z,7.90
2019-05-18T01:18:51.062Z,8.20
2019-05-18T01:21:17.664Z,7.80
2019-05-18T01:23:44.089Z,7.80
2019-05-18T01:26:11.676Z,7.80
2019-05-18T01:28:38.090Z,7.70
2019-05-18T01:31:04.574Z,7.70
2019-05-18T01:33:31.040Z,7.70
2019-05-18T01:35:57.756Z,7.60
2019-05-18T01:38:24.400Z,7.60
2019-05-18T01:40:50.815Z,7.60
2019-05-18T01:43:18.977Z,7.60
2019-05-18T01:45:45.378Z,7.60
2019-05-18T01:48:14.408Z,7.50
2019-05-18T01:50:40.051Z,7.40
2019-05-18T01:53:06.541Z,7.40
2019-05-18T01:55:32.946Z,7.30
2019-05-18T01:57:59.438Z,7.30
2019-05-18T02:00:26.098Z,7.30
2019-05-18T02:02:52.604Z,7.40
2019-05-18T02:05:19.066Z,7.80
2019-05-18T02:07:45.685Z,7.40
2019-05-18T02:10:12.504Z,7.30
2019-05-18T02:12:38.884Z,7.30
2019-05-18T02:15:07.190Z,7.30
2019-05-18T02:17:33.685Z,7.30
2019-05-18T02:20:00.332Z,7.30
2019-05-18T02:22:26.732Z,7.30
2019-05-18T02:24:53.130Z,7.40
2019-05-18T02:27:19.650Z,7.40
2019-05-18T02:29:46.168Z,7.40
2019-05-18T02:32:12.667Z,8.10
2019-05-18T02:34:39.164Z,8.60
2019-05-18T02:37:05.555Z,7.30
2019-05-18T02:39:31.947Z,7.30
2019-05-18T02:41:58.909Z,7.40
2019-05-18T02:44:26.681Z,7.30
2019-05-18T02:46:53.189Z,7.30
2019-05-18T02:49:19.765Z,7.40
2019-05-18T02:51:46.182Z,7.30
2019-05-18T02:54:12.587Z,7.80
2019-05-18T02:56:39.120Z,7.30
2019-05-18T02:59:05.554Z,7.90
2019-05-18T03:01:32.053Z,7.30
2019-05-18T03:03:58.470Z,7.20
2019-05-18T03:06:24.970Z,7.20
2019-05-18T03:08:51.779Z,7.20
2019-05-18T03:11:18.366Z,7.10
2019-05-18T03:13:44.958Z,7.20
2019-05-18T03:16:11.533Z,7.20
2019-05-18T03:18:38.125Z,7.20
2019-05-18T03:21:04.620Z,7.20
2019-05-18T03:23:31.119Z,7.10
2019-05-18T03:25:57.632Z,7.10
2019-05-18T03:28:24.108Z,7.20
2019-05-18T03:30:50.540Z,7.20
2019-05-18T03:33:17.002Z,7.20
2019-05-18T03:35:43.724Z,7.20
2019-05-18T03:38:10.223Z,7.20
2019-05-18T03:40:36.746Z,7.30
2019-05-18T03:43:03.241Z,7.20
2019-05-18T03:45:29.944Z,7.20
2019-05-18T03:47:56.817Z,7.20
2019-05-18T03:50:23.215Z,7.30
2019-05-18T03:52:49.672Z,7.20
2019-05-18T03:55:16.089Z,7.20
2019-05-18T03:57:42.543Z,7.10
2019-05-18T04:00:10.639Z,7.20
2019-05-18T04:02:37.300Z,7.20
2019-05-18T04:05:05.836Z,7.30
2019-05-18T04:07:32.398Z,7.30
2019-05-18T04:09:59.094Z,7.40
2019-05-18T04:12:25.633Z,7.40
2019-05-18T04:14:52.042Z,7.50
2019-05-18T04:17:18.635Z,7.60
2019-05-18T04:19:47.281Z,7.60
2019-05-18T04:22:13.527Z,7.70
2019-05-18T04:24:39.925Z,7.70
2019-05-18T04:27:06.445Z,7.80
2019-05-18T04:29:32.809Z,7.90
2019-05-18T04:31:59.447Z,8.40
2019-05-18T04:34:25.832Z,8.10
2019-05-18T04:36:52.296Z,8.10
2019-05-18T04:39:18.768Z,8.20
2019-05-18T04:41:45.193Z,8.30
2019-05-18T04:44:11.576Z,8.40
2019-05-18T04:46:38.061Z,8.50
2019-05-18T04:49:04.458Z,8.60
2019-05-18T04:51:30.877Z,8.70
2019-05-18T04:53:57.645Z,8.90
2019-05-18T04:56:24.148Z,9.00
2019-05-18T04:58:50.657Z,9.10
2019-05-18T05:01:17.044Z,9.20
2019-05-18T05:03:43.504Z,9.40
2019-05-18T05:06:09.916Z,9.60
2019-05-18T05:08:36.396Z,9.80
2019-05-18T05:11:03.028Z,9.80
2019-05-18T05:13:29.526Z,9.90
2019-05-18T05:15:56.250Z,10.40
2019-05-18T05:18:22.762Z,11.40
2019-05-18T05:20:49.156Z,12.70
2019-05-18T05:23:15.645Z,13.70
2019-05-18T05:25:42.164Z,14.70
2019-05-18T05:28:08.694Z,15.60
2019-05-18T05:30:35.084Z,16.30
2019-05-18T05:33:01.494Z,16.90
2019-05-18T05:35:27.963Z,17.50
2019-05-18T05:37:54.451Z,17.90
2019-05-18T05:40:20.836Z,18.40
2019-05-18T05:42:47.252Z,18.90
2019-05-18T05:45:14.228Z,19.30
2019-05-18T05:47:40.652Z,19.30
2019-05-18T05:50:07.546Z,19.60
2019-05-18T05:52:34.140Z,20.00
2019-05-18T05:55:00.566Z,19.90
2019-05-18T05:57:26.986Z,19.60
2019-05-18T05:59:53.413Z,19.30
2019-05-18T06:02:19.844Z,18.70
2019-05-18T06:04:46.275Z,19.10
2019-05-18T06:07:12.778Z,19.70
2019-05-18T06:09:39.496Z,20.20
2019-05-18T06:12:06.007Z,20.50
2019-05-18T06:14:32.506Z,20.60
2019-05-18T06:16:58.917Z,20.90
2019-05-18T06:19:25.321Z,21.10
2019-05-18T06:21:51.711Z,21.20
2019-05-18T06:24:18.128Z,21.00
2019-05-18T06:26:44.555Z,20.80
2019-05-18T06:29:11.086Z,20.70
2019-05-18T06:31:37.477Z,20.80
2019-05-18T06:34:03.947Z,20.70
2019-05-18T06:36:31.597Z,21.00
2019-05-18T06:38:58.193Z,21.10
2019-05-18T06:41:24.568Z,20.60
2019-05-18T06:43:51.172Z,21.30
2019-05-18T06:46:17.787Z,21.90
2019-05-18T06:48:44.299Z,21.80
2019-05-18T06:51:10.722Z,22.10
2019-05-18T06:53:37.201Z,22.10
2019-05-18T06:56:03.829Z,22.50
2019-05-18T06:58:31.126Z,22.80
2019-05-18T07:00:57.744Z,23.00
2019-05-18T07:03:25.259Z,22.70
2019-05-18T07:05:52.525Z,23.00
2019-05-18T07:08:18.938Z,23.50
2019-05-18T07:10:45.481Z,24.00
2019-05-18T07:13:11.884Z,24.20
2019-05-18T07:15:38.395Z,24.40
2019-05-18T07:18:04.893Z,24.60
2019-05-18T07:20:32.400Z,24.70
2019-05-18T07:22:58.795Z,25.00
2019-05-18T07:25:25.230Z,25.40
2019-05-18T07:27:51.663Z,26.00
2019-05-18T07:30:18.767Z,26.10
2019-05-18T07:32:45.187Z,25.90
2019-05-18T07:35:12.579Z,26.30
2019-05-18T07:37:39.251Z,25.80
2019-05-18T07:40:06.266Z,25.70
2019-05-18T07:42:32.633Z,25.70
2019-05-18T07:44:59.405Z,25.30
2019-05-18T07:47:25.878Z,25.40
2019-05-18T07:49:54.238Z,26.10
2019-05-18T07:52:20.618Z,26.30
2019-05-18T07:54:47.214Z,26.50
2019-05-18T07:57:13.711Z,26.60
2019-05-18T07:59:40.241Z,26.70
2019-05-18T08:02:06.662Z,27.10
2019-05-18T08:04:33.112Z,27.30
2019-05-18T08:06:59.690Z,27.40
2019-05-18T08:09:26.129Z,27.60
2019-05-18T08:11:52.628Z,27.50
2019-05-18T08:14:19.153Z,27.90
2019-05-18T08:16:45.536Z,28.00
2019-05-18T08:19:12.078Z,28.20
2019-05-18T08:21:52.298Z,28.50
2019-05-18T08:24:07.883Z,28.20
2019-05-18T08:26:34.500Z,28.10
2019-05-18T08:29:01.090Z,28.20
2019-05-18T08:31:27.599Z,27.50
2019-05-18T08:33:54.041Z,27.50
2019-05-18T08:36:21.529Z,28.10
2019-05-18T08:38:47.936Z,28.00
2019-05-18T08:41:14.620Z,28.30
2019-05-18T08:43:41.114Z,27.50
2019-05-18T08:46:07.500Z,27.40
2019-05-18T08:48:33.876Z,27.70
2019-05-18T08:51:00.728Z,28.50
2019-05-18T08:53:27.117Z,28.60
2019-05-18T08:55:53.519Z,28.40
2019-05-18T08:58:21.018Z,28.10
2019-05-18T09:00:47.421Z,27.70
2019-05-18T09:03:13.851Z,28.00
2019-05-18T09:05:40.570Z,28.10
2019-05-18T09:08:06.972Z,28.40
2019-05-18T09:10:33.687Z,28.80
2019-05-18T09:13:00.258Z,28.90
2019-05-18T09:15:26.835Z,28.70
2019-05-18T09:17:53.243Z,28.60
2019-05-18T09:20:19.959Z,28.30
2019-05-18T09:22:46.459Z,28.30
2019-05-18T09:25:13.036Z,28.30
2019-05-18T09:27:39.415Z,28.00
2019-05-18T09:30:07.044Z,28.40
2019-05-18T09:32:34.540Z,28.10
2019-05-18T09:35:00.953Z,28.10
2019-05-18T09:37:27.447Z,28.30
2019-05-18T09:39:54.024Z,28.20
2019-05-18T09:42:20.460Z,27.70
2019-05-18T09:44:47.054Z,27.50
2019-05-18T09:47:13.666Z,27.70
2019-05-18T09:49:40.173Z,27.60
2019-05-18T09:52:06.780Z,27.10
2019-05-18T09:54:33.274Z,26.90
2019-05-18T09:56:59.730Z,26.10
2019-05-18T09:59:26.153Z,25.70
2019-05-18T10:01:53.686Z,25.20
2019-05-18T10:04:20.190Z,25.90
2019-05-18T10:06:46.606Z,26.40
2019-05-18T10:09:13.018Z,25.60
2019-05-18T10:11:39.418Z,25.10
2019-05-18T10:14:06.035Z,24.90
2019-05-18T10:16:33.505Z,24.70
2019-05-18T10:19:02.997Z,25.30
2019-05-18T10:21:29.474Z,26.40
2019-05-18T10:23:56.098Z,26.70
2019-05-18T10:26:22.760Z,26.30
2019-05-18T10:28:49.248Z,26.50
2019-05-18T10:31:15.682Z,26.60
2019-05-18T10:33:42.206Z,26.20
2019-05-18T10:36:11.528Z,26.00
2019-05-18T10:38:37.021Z,27.40
2019-05-18T10:41:03.471Z,27.70
2019-05-18T10:43:30.037Z,27.20
2019-05-18T10:45:56.769Z,25.90
2019-05-18T10:48:23.176Z,25.30
2019-05-18T10:50:49.561Z,25.30
2019-05-18T10:53:27.776Z,25.70
2019-05-18T10:55:44.404Z,25.60
2019-05-18T10:58:11.046Z,26.30
2019-05-18T11:00:37.621Z,26.50
2019-05-18T11:03:04.350Z,26.20
2019-05-18T11:05:30.888Z,25.50
2019-05-18T11:07:57.502Z,24.80
2019-05-18T11:10:24.249Z,24.50
2019-05-18T11:12:50.778Z,24.20
2019-05-18T11:15:18.070Z,23.90
2019-05-18T11:17:44.587Z,23.70
2019-05-18T11:20:12.091Z,23.50
2019-05-18T11:22:38.695Z,23.40
2019-05-18T11:25:06.394Z,23.30
2019-05-18T11:27:32.998Z,23.30
2019-05-18T11:29:59.531Z,23.20
2019-05-18T11:32:25.932Z,23.40
2019-05-18T11:34:52.487Z,23.20
2019-05-18T11:37:19.078Z,23.20
2019-05-18T11:39:45.513Z,23.40
2019-05-18T11:42:12.119Z,23.60
2019-05-18T11:44:38.736Z,23.50
2019-05-18T11:47:05.158Z,23.70
2019-05-18T11:49:31.732Z,23.90
2019-05-18T11:51:59.254Z,23.90
2019-05-18T11:54:26.301Z,24.10
2019-05-18T11:56:52.968Z,24.20
2019-05-18T11:59:19.463Z,24.30
2019-05-18T12:01:46.012Z,24.00
2019-05-18T12:04:12.492Z,24.40
2019-05-18T12:06:39.112Z,25.00
2019-05-18T12:09:05.840Z,25.50
2019-05-18T12:11:32.462Z,25.60
2019-05-18T12:13:58.898Z,26.00
2019-05-18T12:16:25.353Z,26.20
2019-05-18T12:18:52.936Z,26.30
2019-05-18T12:21:19.447Z,26.10
2019-05-18T12:23:45.896Z,26.30
2019-05-18T12:26:12.421Z,26.50
2019-05-18T12:28:39.026Z,26.80
2019-05-18T12:31:05.723Z,26.70
2019-05-18T12:33:32.141Z,26.20
2019-05-18T12:35:58.673Z,26.00
2019-05-18T12:38:25.358Z,25.70
2019-05-18T12:40:52.649Z,25.70
2019-05-18T12:43:19.106Z,25.60
2019-05-18T12:45:45.608Z,25.80
2019-05-18T12:48:12.108Z,25.70
2019-05-18T12:50:38.683Z,25.60
2019-05-18T12:53:05.280Z,25.30
2019-05-18T12:55:31.835Z,25.00
2019-05-18T12:57:58.421Z,24.80
2019-05-18T13:00:25.026Z,24.70
2019-05-18T13:02:51.613Z,25.00
2019-05-18T13:05:18.619Z,24.80
2019-05-18T13:07:45.036Z,25.00
2019-05-18T13:10:12.541Z,25.10
2019-05-18T13:12:39.065Z,25.00
2019-05-18T13:15:09.503Z,25.30
2019-05-18T13:17:36.250Z,25.30
2019-05-18T13:20:08.310Z,25.00
2019-05-18T13:22:34.745Z,25.00
2019-05-18T13:25:01.159Z,25.30
2019-05-18T13:27:38.833Z,25.20
2019-05-18T13:29:56.451Z,25.10
2019-05-18T13:32:22.918Z,25.00
2019-05-18T13:34:49.450Z,25.10
2019-05-18T13:37:15.854Z,25.20
2019-05-18T13:39:42.278Z,24.60
2019-05-18T13:42:08.671Z,24.60
2019-05-18T13:44:38.009Z,24.60
2019-05-18T13:47:03.365Z,24.40
2019-05-18T13:49:29.762Z,24.40
2019-05-18T13:51:56.203Z,24.40
2019-05-18T13:54:22.886Z,24.50
2019-05-18T13:56:49.290Z,24.40
2019-05-18T13:59:15.777Z,24.30
2019-05-18T14:01:42.184Z,24.20
2019-05-18T14:04:08.802Z,24.20
2019-05-18T14:06:35.255Z,24.20
2019-05-18T14:09:01.685Z,24.10
2019-05-18T14:11:29.414Z,24.10
2019-05-18T14:13:55.850Z,24.10
2019-05-18T14:16:22.373Z,24.00
2019-05-18T14:18:48.866Z,24.20
2019-05-18T14:21:15.257Z,24.10
2019-05-18T14:23:41.860Z,24.20
2019-05-18T14:26:11.288Z,24.00
2019-05-18T14:28:37.665Z,23.80
2019-05-18T14:31:04.074Z,23.80
2019-05-18T14:33:30.687Z,23.70
2019-05-18T14:35:57.194Z,23.50
2019-05-18T14:38:23.712Z,23.50
2019-05-18T14:40:50.164Z,23.40
2019-05-18T14:43:16.773Z,23.40
2019-05-18T14:45:43.260Z,23.60
2019-05-18T14:48:09.675Z,23.50
2019-05-18T14:50:36.211Z,23.70
2019-05-18T14:53:02.826Z,23.70
2019-05-18T14:55:33.578Z,23.80
2019-05-18T14:57:58.902Z,23.80
2019-05-18T15:00:25.578Z,23.70
2019-05-18T15:02:52.080Z,23.40
2019-05-18T15:05:19.779Z,23.30
2019-05-18T15:07:46.269Z,23.30
2019-05-18T15:10:13.288Z,23.30
2019-05-18T15:12:39.710Z,23.10
2019-05-18T15:15:07.505Z,23.10
2019-05-18T15:17:35.285Z,23.10
2019-05-18T15:20:02.614Z,23.20
2019-05-18T15:22:29.221Z,23.20
2019-05-18T15:24:55.627Z,23.00
2019-05-18T15:27:22.238Z,22.80
2019-05-18T15:29:48.631Z,22.70
2019-05-18T15:32:15.423Z,22.90
2019-05-18T15:34:41.979Z,22.80
2019-05-18T15:37:08.445Z,22.80
2019-05-18T15:39:34.886Z,22.70
2019-05-18T15:42:01.505Z,22.70
2019-05-18T15:44:29.152Z,22.60
2019-05-18T15:46:55.648Z,22.60
2019-05-18T15:49:22.162Z,22.50
2019-05-18T15:51:48.557Z,22.60
2019-05-18T15:54:16.144Z,22.50
2019-05-18T15:56:44.289Z,22.50
2019-05-18T15:59:10.905Z,22.40
2019-05-18T16:01:37.409Z,22.30
2019-05-18T16:04:06.474Z,22.20
2019-05-18T16:06:32.171Z,22.20
2019-05-18T16:08:58.723Z,22.20
2019-05-18T16:11:25.328Z,22.10
2019-05-18T16:13:51.846Z,22.00
2019-05-18T16:16:18.237Z,21.90
2019-05-18T16:18:44.633Z,21.90
2019-05-18T16:21:11.044Z,21.90
2019-05-18T16:23:37.417Z,21.80
2019-05-18T16:26:03.959Z,21.70
2019-05-18T16:28:30.363Z,21.70
2019-05-18T16:30:57.020Z,21.70
2019-05-18T16:33:23.838Z,21.80
2019-05-18T16:35:50.418Z,21.70
2019-05-18T16:38:17.059Z,21.70
2019-05-18T16:40:43.554Z,21.70
2019-05-18T16:43:10.207Z,21.60
2019-05-18T16:45:36.733Z,21.50
2019-05-18T16:48:03.222Z,21.50
2019-05-18T16:50:29.853Z,21.50
2019-05-18T16:52:56.262Z,22.30
2019-05-18T16:55:24.291Z,21.40
2019-05-18T16:57:50.699Z,21.30
2019-05-18T17:00:17.735Z,21.20
2019-05-18T17:02:44.323Z,21.10
2019-05-18T17:05:12.595Z,21.10
2019-05-18T17:07:39.242Z,21.20
2019-05-18T17:10:06.359Z,21.10
2019-05-18T17:12:32.756Z,21.10
2019-05-18T17:14:59.186Z,21.00
2019-05-18T17:17:25.679Z,20.90
2019-05-18T17:19:52.215Z,20.90
2019-05-18T17:22:18.697Z,20.90
2019-05-18T17:24:45.179Z,20.70
2019-05-18T17:27:11.727Z,20.70
2019-05-18T17:29:38.194Z,20.60
2019-05-18T17:32:04.676Z,20.60
2019-05-18T17:34:31.218Z,20.50
2019-05-18T17:36:57.765Z,20.40
2019-05-18T17:39:24.293Z,20.40
2019-05-18T17:41:50.959Z,20.30
2019-05-18T17:44:17.449Z,20.20
2019-05-18T17:46:44.608Z,20.20
2019-05-18T17:49:25.896Z,20.10
2019-05-18T17:51:39.522Z,20.10
2019-05-18T17:54:05.914Z,20.00
2019-05-18T17:56:32.479Z,20.00
2019-05-18T17:58:58.958Z,19.90
2019-05-18T18:01:25.759Z,19.90
2019-05-18T18:03:53.341Z,19.80
2019-05-18T18:06:19.879Z,19.70
2019-05-18T18:08:46.356Z,19.70
2019-05-18T18:11:12.775Z,19.60
2019-05-18T18:13:39.185Z,19.50
2019-05-18T18:16:05.782Z,19.40
2019-05-18T18:18:34.875Z,19.30
2019-05-18T18:21:00.747Z,19.20
2019-05-18T18:23:27.250Z,19.10
2019-05-18T18:25:54.814Z,19.00
2019-05-18T18:28:21.298Z,18.90
2019-05-18T18:30:47.689Z,18.80
2019-05-18T18:33:14.218Z,17.80
2019-05-18T18:35:41.033Z,18.60
2019-05-18T18:38:07.571Z,18.50
2019-05-18T18:40:34.206Z,18.40
2019-05-18T18:43:00.611Z,18.30
2019-05-18T18:45:27.361Z,18.20
2019-05-18T18:47:53.957Z,18.10
2019-05-18T18:50:20.458Z,18.00
2019-05-18T18:52:47.056Z,17.90
2019-05-18T18:55:13.488Z,17.70
2019-05-18T18:57:41.896Z,17.70
2019-05-18T19:00:10.622Z,17.50
2019-05-18T19:02:37.288Z,17.30
2019-05-18T19:05:05.195Z,17.20
2019-05-18T19:07:31.776Z,17.10
2019-05-18T19:09:58.431Z,17.00
2019-05-18T19:12:26.003Z,16.80
2019-05-18T19:14:52.431Z,16.70
2019-05-18T19:17:18.930Z,16.60
2019-05-18T19:19:45.341Z,16.50
2019-05-18T19:22:11.793Z,16.40
2019-05-18T19:24:38.202Z,16.30
2019-05-18T19:27:04.655Z,16.10
2019-05-18T19:29:31.241Z,16.00
2019-05-18T19:31:57.763Z,15.90
2019-05-18T19:34:24.319Z,15.80
2019-05-18T19:36:50.852Z,15.70
2019-05-18T19:39:17.284Z,15.70
2019-05-18T19:41:43.889Z,15.50
2019-05-18T19:44:13.191Z,15.50
2019-05-18T19:46:39.629Z,15.40
2019-05-18T19:49:06.093Z,15.30
2019-05-18T19:51:32.713Z,15.20
2019-05-18T19:53:59.336Z,15.10
2019-05-18T19:56:25.729Z,15.10
2019-05-18T19:58:52.224Z,15.00
2019-05-18T20:01:18.659Z,14.90
2019-05-18T20:03:45.147Z,14.80
2019-05-18T20:06:11.534Z,14.70
2019-05-18T20:08:38.038Z,14.60
2019-05-18T20:11:04.679Z,14.60
2019-05-18T20:13:31.240Z,14.50
2019-05-18T20:15:57.659Z,14.40
2019-05-18T20:18:27.040Z,14.30
2019-05-18T20:20:53.563Z,14.20
2019-05-18T20:23:20.084Z,14.20
2019-05-18T20:25:46.685Z,14.10
2019-05-18T20:28:23.498Z,14.00
2019-05-18T20:30:41.507Z,13.90
2019-05-18T20:33:08.017Z,13.90
2019-05-18T20:35:34.559Z,13.80
2019-05-18T20:38:01.073Z,13.70
2019-05-18T20:40:27.558Z,13.60
2019-05-18T20:42:54.204Z,13.60
2019-05-18T20:45:20.598Z,13.50
2019-05-18T20:47:47.197Z,13.40
2019-05-18T20:50:13.989Z,13.40
2019-05-18T20:52:40.478Z,13.30
2019-05-18T20:55:07.260Z,13.30
2019-05-18T20:57:33.790Z,13.20
2019-05-18T21:00:00.199Z,13.10
2019-05-18T21:02:26.802Z,13.00
2019-05-18T21:04:53.202Z,13.00
2019-05-18T21:07:19.744Z,13.00
2019-05-18T21:09:46.164Z,12.90
2019-05-18T21:12:12.647Z,12.80
2019-05-18T21:14:39.081Z,12.80
2019-05-18T21:17:05.595Z,12.80
2019-05-18T21:19:32.080Z,12.70
2019-05-18T21:21:58.620Z,12.60
2019-05-18T21:24:25.278Z,12.60
2019-05-18T21:26:51.749Z,12.50
2019-05-18T21:29:18.231Z,12.50
2019-05-18T21:31:44.621Z,12.40
2019-05-18T21:34:11.027Z,12.30
2019-05-18T21:36:37.544Z,12.20
2019-05-18T21:39:06.104Z,12.10
2019-05-18T21:41:32.775Z,12.00
2019-05-18T21:43:59.315Z,11.90
2019-05-18T21:46:25.794Z,11.80
2019-05-18T21:48:52.186Z,11.80
2019-05-18T21:51:18.619Z,11.80
2019-05-18T21:53:45.108Z,11.80
2019-05-18T21:56:11.505Z,11.70
2019-05-18T21:58:38.000Z,11.60
2019-05-18T22:01:05.219Z,11.50
2019-05-18T22:03:31.824Z,11.50
2019-05-18T22:05:58.351Z,11.40
2019-05-18T22:08:25.855Z,11.30
2019-05-18T22:10:52.445Z,11.30
2019-05-18T22:13:18.961Z,11.20
2019-05-18T22:15:45.359Z,11.20
2019-05-18T22:18:23.588Z,11.20
2019-05-18T22:20:43.981Z,11.10
2019-05-18T22:23:08.596Z,11.00
2019-05-18T22:25:35.026Z,10.90
2019-05-18T22:28:01.526Z,10.90
2019-05-18T22:30:28.187Z,10.80
2019-05-18T22:32:54.768Z,10.80
2019-05-18T22:35:21.260Z,10.80
2019-05-18T22:37:47.653Z,10.70
2019-05-18T22:40:14.344Z,10.70
2019-05-18T22:42:40.762Z,10.70
2019-05-18T22:45:07.579Z,10.70
2019-05-18T22:47:33.966Z,10.60
2019-05-18T22:50:00.362Z,10.50
2019-05-18T22:52:26.758Z,10.40
2019-05-18T22:54:53.156Z,10.30
2019-05-18T22:57:19.678Z,10.20
2019-05-18T22:59:46.070Z,10.20
2019-05-18T23:02:13.456Z,10.20
2019-05-18T23:04:39.996Z,10.20
2019-05-18T23:07:06.487Z,10.20
2019-05-18T23:09:33.122Z,10.40
2019-05-18T23:11:59.573Z,10.10
2019-05-18T23:14:29.143Z,10.10
2019-05-18T23:16:55.611Z,10.00
2019-05-18T23:19:22.080Z,10.00
2019-05-18T23:21:48.814Z,9.90
2019-05-18T23:24:15.381Z,9.80
2019-05-18T23:26:41.912Z,9.70
2019-05-18T23:29:08.304Z,9.80
2019-05-18T23:31:34.809Z,9.80
2019-05-18T23:34:01.313Z,9.70
2019-05-18T23:36:27.832Z,9.70
2019-05-18T23:38:54.345Z,9.70
2019-05-18T23:41:20.792Z,9.70
2019-05-18T23:43:47.286Z,9.60
2019-05-18T23:46:13.834Z,9.50
2019-05-18T23:48:42.656Z,9.40
2019-05-18T23:51:09.810Z,9.40
2019-05-18T23:53:37.692Z,9.40
2019-05-18T23:56:04.466Z,9.40
2019-05-18T23:58:31.274Z,9.30
